createdAt,value
2018-07-19T00:08:09.864Z,3.33
2018-07-19T00:18:13.910Z,3.10
2018-07-19T00:28:17.012Z,3.17
2018-07-19T00:38:20.125Z,2.90
2018-07-19T00:48:23.158Z,3.10
2018-07-19T00:58:26.209Z,2.98
2018-07-19T01:08:29.262Z,2.65
2018-07-19T01:18:32.305Z,3.22
2018-07-19T01:28:35.364Z,3.00
2018-07-19T01:38:38.380Z,3.15
2018-07-19T01:48:41.454Z,3.00
2018-07-19T01:58:44.459Z,3.20
2018-07-19T02:08:47.583Z,3.30
2018-07-19T02:18:50.615Z,3.62
2018-07-19T02:28:53.649Z,3.33
2018-07-19T02:38:56.693Z,3.22
2018-07-19T02:48:59.762Z,2.87
2018-07-19T02:59:02.877Z,3.35
2018-07-19T03:09:06.574Z,3.33
2018-07-19T03:19:09.584Z,3.20
2018-07-19T03:29:12.639Z,3.83
2018-07-19T03:39:15.644Z,3.95
2018-07-19T03:49:18.477Z,4.50
2018-07-19T03:59:22.040Z,5.53
2018-07-19T04:09:25.048Z,4.85
2018-07-19T04:19:28.082Z,4.15
2018-07-19T04:29:31.194Z,7.10
2018-07-19T04:39:34.217Z,4.25
2018-07-19T04:49:37.227Z,4.95
2018-07-19T04:59:40.269Z,5.80
2018-07-19T05:09:43.818Z,4.53
2018-07-19T05:19:46.856Z,3.98
2018-07-19T05:29:49.702Z,5.28
2018-07-19T05:39:52.752Z,5.40
2018-07-19T05:49:55.791Z,4.80
2018-07-19T05:59:58.891Z,4.15
2018-07-19T06:10:01.923Z,4.72
2018-07-19T06:20:05.123Z,4.97
2018-07-19T06:30:08.192Z,4.03
2018-07-19T06:40:11.229Z,4.45
2018-07-19T06:50:14.254Z,4.35
2018-07-19T07:00:17.284Z,5.00
2018-07-19T07:10:21.098Z,4.75
2018-07-19T07:20:24.111Z,5.30
2018-07-19T07:30:27.108Z,5.33
2018-07-19T07:40:30.321Z,5.65
2018-07-19T07:50:33.489Z,5.70
2018-07-19T08:00:36.501Z,4.83
2018-07-19T08:10:39.582Z,5.15
2018-07-19T08:20:42.618Z,4.30
2018-07-19T08:30:45.820Z,3.75
2018-07-19T08:40:48.856Z,4.05
2018-07-19T08:50:51.886Z,3.62
2018-07-19T09:00:54.915Z,4.25
2018-07-19T09:10:57.947Z,3.47
2018-07-19T09:21:00.953Z,3.52
2018-07-19T09:31:03.976Z,3.70
2018-07-19T09:41:06.992Z,4.00
2018-07-19T09:51:10.070Z,3.65
2018-07-19T10:01:20.034Z,3.40
2018-07-19T10:11:23.090Z,3.90
2018-07-19T10:21:26.117Z,4.30
2018-07-19T10:31:29.160Z,3.92
2018-07-19T10:41:32.165Z,2.70
2018-07-19T10:51:35.224Z,2.50
2018-07-19T11:01:38.230Z,2.55
2018-07-19T11:11:41.273Z,2.50
2018-07-19T11:21:44.285Z,2.02
2018-07-19T11:31:47.287Z,1.80
2018-07-19T11:41:50.289Z,1.52
2018-07-19T11:51:53.317Z,1.90
2018-07-19T12:01:58.350Z,1.95
2018-07-19T12:12:01.382Z,2.10
2018-07-19T12:22:04.458Z,1.72
2018-07-19T12:32:08.583Z,1.80
2018-07-19T12:42:11.650Z,1.40
2018-07-19T12:52:14.678Z,1.37
2018-07-19T13:02:17.697Z,1.37
2018-07-19T13:12:20.728Z,1.47
2018-07-19T13:22:23.738Z,1.42
2018-07-19T13:32:27.027Z,1.77
2018-07-19T13:42:30.060Z,1.65
2018-07-19T13:52:44.870Z,1.80
2018-07-19T14:02:47.925Z,1.75
2018-07-19T14:12:50.926Z,1.40
2018-07-19T14:22:53.934Z,1.75
2018-07-19T14:32:56.970Z,2.37
2018-07-19T14:43:00.011Z,2.15
2018-07-19T14:53:06.736Z,2.58
2018-07-19T15:03:09.564Z,2.77
2018-07-19T15:13:12.614Z,2.52
2018-07-19T15:23:16.725Z,2.30
2018-07-19T15:33:19.777Z,2.60
2018-07-19T15:43:27.072Z,2.22
2018-07-19T15:53:35.769Z,2.30
2018-07-19T16:03:38.794Z,2.25
2018-07-19T16:13:41.837Z,2.10
2018-07-19T16:23:44.926Z,2.02
2018-07-19T16:33:47.969Z,2.50
2018-07-19T16:43:50.974Z,2.33
2018-07-19T16:53:53.982Z,2.15
2018-07-19T17:04:02.257Z,2.20
2018-07-19T17:14:08.914Z,2.20
2018-07-19T17:24:20.533Z,1.90
2018-07-19T17:34:23.574Z,2.30
2018-07-19T17:44:26.632Z,2.00
2018-07-19T17:54:42.492Z,1.90
2018-07-19T18:04:45.631Z,2.10
2018-07-19T18:14:48.966Z,4.17
2018-07-19T18:24:52.326Z,6.95
2018-07-19T18:34:55.351Z,6.90
2018-07-19T18:44:58.766Z,7.33
2018-07-19T18:55:02.042Z,8.28
2018-07-19T19:05:05.248Z,8.73
2018-07-19T19:15:15.905Z,7.90
2018-07-19T19:25:19.466Z,7.30
2018-07-19T19:35:23.539Z,6.87
2018-07-19T19:45:26.615Z,6.08
2018-07-19T19:55:29.725Z,5.83
2018-07-19T20:05:36.305Z,5.35
2018-07-19T20:15:39.329Z,5.22
2018-07-19T20:25:42.357Z,4.87
2018-07-19T20:35:45.465Z,5.33
2018-07-19T20:45:49.556Z,5.05
2018-07-19T20:55:53.584Z,5.05
2018-07-19T21:05:56.618Z,6.30
2018-07-19T21:16:00.708Z,5.67
2018-07-19T21:26:03.799Z,5.75
2018-07-19T21:36:06.774Z,5.00
2018-07-19T21:46:09.789Z,5.12
2018-07-19T21:56:13.105Z,4.65
2018-07-19T22:06:16.106Z,5.42
2018-07-19T22:16:19.143Z,4.67
2018-07-19T22:26:26.598Z,4.45
2018-07-19T22:36:29.619Z,4.97
2018-07-19T22:46:32.445Z,5.87
2018-07-19T22:56:35.470Z,5.12
2018-07-19T23:06:38.541Z,5.05
2018-07-19T23:16:41.579Z,5.37
2018-07-19T23:26:44.602Z,5.33
2018-07-19T23:36:51.266Z,5.80
2018-07-19T23:46:58.661Z,5.83
2018-07-19T23:57:03.798Z,5.58
